Cyclone, Texas
Current Conditions -  °F | °C
As of 2:15 PM on Saturday 25 Oct 2014 (Local Time) from KT35 Reporting Station
Clear Clear  
Wind Chill: 86°   Ceiling: Unl
Heat Index: 86°   Visibility: 10mi
Dew Point: 62°   Wind: 8mph
Humidity: 44%   Direction: 190°S
Pressure: 30.11"   Gusts: NA
Location:  30.9882°N, 97.103°W
Report Text: KT35 251915Z AUTO 19007KT 10SM CLR 30/16 A3011 RMK AO2 T03000164
Loading
Personal Weather Stations






























Interactive Weather Map
Tropical Storm Tracking
New forecast layout! Learn more

10-Day Weather Forecast

Advertisements
Track Severe Weather on mobile